Hauptseite
METAR-TAF:

METAR-TAF

Flughäfen :

Flughafen Paderborn/Lippstadt

Paderborn-Lippstadt, Deutschland

Breite: 51-37N, Länge: 008-37E, Höhe: 213 m

Beobachtung

Neuester Wetterbericht von vor 42 Minuten, um 06:50 UTC
Wind 8 kt aus Süd/Südost
Temperatur 2°C
Luftfeuchtigkeit 80%
Luftdruck 1000 hPa
Sichtweite 10 km oder mehr
Leicht bewölkt in der Höhe von 4300 ft

METAR: EDLP 130650Z 16008KT 9999 FEW043 02/M01 Q1000

Zeit: 08:32 (07:32 UTC)

Prognose

Neuester Wetterbericht von vor 2 Stunden und 32 Minuten, um 05:00 UTC
Gültige Prognose vom 13 um 06 UTC bis 14 um 06 UTC
Wind 10 kt aus Süd/Südwest
Sichtweite 10 km oder mehr
Durchbrochene Bewölkung in der Höhe von 3000 ft
Übergehend zu
vom 13 um 20 UTC bis 13 um 23 UTC
Wind 7 kt aus Südost

TAF: EDLP 130500Z 1306/1406 20010KT 9999 BKN030 BECMG 1320/1323 14007KT

Wetterbeobachtungen und Prognosen von mehr als 4000 Flughäfen (METAR und TAF Bericht).

Die verfügbaren Stationen werden durch gelbe und rote Markierungen auf der Karte dargestellt.

Führen Sie die Maus auf sie, um den Namen der Station zu sehen.

Darauf klicken, um die Beobachtung von Wetterbeobachtungen und Prognosen zu sehen.

Um die Karte zu ändern : klicken Sie auf den grünen Tasten mit einem schwarzen Kreuz Zum Vergrößern, auf den grünen Button mit einem Gedankenstrich zu verkleinern, oder auf die grünen Pfeile für benachbarte Karten.


METAR-TAF: